Time;durP1;ratioP1;P1;durP2;ratioP2;P2;SDS_P1;SDS_P2;PMS_P1;PMS_P2;Temp;Humidity;BMP_temperature;BMP_pressure;BME280_temperature;BME280_humidity;BME280_pressure;Samples;Min_cycle;Max_cycle;Signal;HPM_P1;HPM_P2
2022/11/05 00:10:10;;;;;;;;;19.75;19.00;;;;;10.87;57.17;101390.50;4942596;28;45297;-63
2022/11/05 00:18:03;;;;;;;;;19.00;17.00;;;;;10.81;57.17;101387.91;4942239;28;45268;-63
2022/11/05 00:20:29;;;;;;;;;16.00;16.00;;;;;10.76;57.29;101385.28;4942217;28;45372;-63
2022/11/05 00:26:12;;;;;;;;;12.75;12.75;;;;;10.77;57.32;101388.78;4942589;28;45164;-63
2022/11/05 00:28:42;;;;;;;;;19.50;18.50;;;;;10.76;57.25;101389.69;4941062;28;45493;-63
2022/11/05 00:31:12;;;;;;;;;15.50;15.50;;;;;10.73;57.36;101391.44;4942098;28;46265;-63
2022/11/05 00:33:40;;;;;;;;;20.25;16.00;;;;;10.71;57.34;101390.56;4942071;28;45367;-63
2022/11/05 00:36:08;;;;;;;;;19.00;17.00;;;;;10.69;57.26;101388.81;4942145;28;45258;-63
2022/11/05 00:38:33;;;;;;;;;22.00;19.00;;;;;10.67;57.27;101386.22;4942121;28;45497;-63
2022/11/05 00:40:59;;;;;;;;;21.50;18.50;;;;;10.63;57.15;101381.84;4941794;28;45360;-63
2022/11/05 00:46:08;;;;;;;;;23.75;18.00;;;;;10.62;57.42;101390.63;4942398;28;45307;-63
2022/11/05 00:51:18;;;;;;;;;19.50;16.25;;;;;10.60;57.38;101410.75;4941924;28;45768;-63
2022/11/05 00:53:44;;;;;;;;;21.25;20.50;;;;;10.57;57.36;101406.38;4941663;28;45271;-63
2022/11/05 00:56:09;;;;;;;;;19.75;18.75;;;;;10.57;57.29;101411.66;4942181;28;45611;-63
2022/11/05 00:58:34;;;;;;;;;22.25;18.50;;;;;10.54;57.54;101411.66;4941659;28;45577;-63
2022/11/05 01:01:01;;;;;;;;;18.75;16.25;;;;;10.55;57.44;101410.78;4941867;28;45971;-63
2022/11/05 01:03:37;;;;;;;;;21.00;19.75;;;;;10.53;57.40;101403.78;4941506;28;45353;-63
2022/11/05 01:06:09;;;;;;;;;20.00;18.25;;;;;10.53;57.40;101412.53;4940618;28;45299;-63
2022/11/05 01:08:34;;;;;;;;;24.00;19.50;;;;;10.51;57.59;101409.03;4941562;28;45276;-63
2022/11/05 01:11:33;;;;;;;;;17.25;14.50;;;;;10.50;57.42;101409.03;4941600;28;45329;-61
2022/11/05 01:14:08;;;;;;;;;23.25;16.25;;;;;10.46;57.55;101404.69;4939698;28;45394;-63
2022/11/05 01:16:34;;;;;;;;;20.00;18.00;;;;;10.45;57.58;101403.78;4941490;28;45334;-63
2022/11/05 01:19:00;;;;;;;;;16.50;15.25;;;;;10.42;57.73;101409.06;4941304;28;45532;-64
2022/11/05 01:21:26;;;;;;;;;16.00;15.75;;;;;10.43;57.63;101415.19;4941443;28;46397;-63
2022/11/05 01:23:51;;;;;;;;;19.25;17.25;;;;;10.42;57.68;101414.34;4941622;28;45298;-61
2022/11/05 01:26:17;;;;;;;;;24.75;20.00;;;;;10.40;57.65;101410.81;4941511;28;45302;-61
2022/11/05 01:28:42;;;;;;;;;20.25;18.75;;;;;10.37;57.70;101414.34;4941549;28;45220;-61
2022/11/05 01:31:07;;;;;;;;;22.25;18.25;;;;;10.29;57.73;101396.81;4941290;28;49120;-61
2022/11/05 01:33:33;;;;;;;;;19.25;16.25;;;;;10.32;57.69;101402.94;4941237;28;45264;-61
2022/11/05 01:35:58;;;;;;;;;16.25;15.00;;;;;10.35;57.80;101409.94;4941532;28;45199;-61
2022/11/05 01:38:23;;;;;;;;;12.50;12.50;;;;;10.34;57.83;101413.44;4941285;28;45223;-61
2022/11/05 01:40:49;;;;;;;;;19.00;17.25;;;;;10.32;57.58;101408.19;4941154;28;45450;-61
2022/11/05 01:43:22;;;;;;;;;19.25;17.00;;;;;10.32;57.79;101407.31;4941593;28;45291;-61
2022/11/05 01:45:51;;;;;;;;;17.50;13.00;;;;;10.29;57.64;101407.31;4941410;28;45183;-61
2022/11/05 01:48:24;;;;;;;;;17.75;16.50;;;;;10.28;57.67;101406.47;4940790;28;45674;-61
2022/11/05 01:50:54;;;;;;;;;17.75;16.50;;;;;10.25;57.86;101406.44;4941028;28;45422;-62
2022/11/05 01:53:29;;;;;;;;;22.00;16.75;;;;;10.20;57.83;101406.47;4941165;28;45307;-62
2022/11/05 01:56:03;;;;;;;;;16.50;15.00;;;;;10.19;57.84;101409.13;4941268;28;45146;-62
2022/11/05 01:58:35;;;;;;;;;15.50;14.00;;;;;10.21;57.67;101410.84;4941095;28;45472;-62
2022/11/05 02:01:01;;;;;;;;;15.00;13.75;;;;;10.19;57.74;101407.34;4939778;28;46464;-62
2022/11/05 02:03:27;;;;;;;;;16.25;14.75;;;;;10.18;57.71;101410.00;4940674;28;45379;-62
2022/11/05 02:05:56;;;;;;;;;17.75;15.50;;;;;10.18;57.64;101404.72;4941464;28;45337;-62
2022/11/05 02:08:35;;;;;;;;;17.75;14.50;;;;;10.16;57.96;101409.09;4940917;28;45299;-62
2022/11/05 02:11:02;;;;;;;;;16.50;14.25;;;;;10.15;57.89;101410.88;4940898;28;45363;-62
2022/11/05 02:13:27;;;;;;;;;16.75;16.50;;;;;10.14;57.86;101410.84;4940744;28;45400;-62
2022/11/05 02:17:01;;;;;;;;;18.00;15.75;;;;;10.12;57.88;101404.75;4939586;28;45685;-62
2022/11/05 02:19:39;;;;;;;;;20.75;14.50;;;;;10.08;57.76;101404.72;4900350;29;45476;-61
2022/11/05 02:22:29;;;;;;;;;21.50;18.00;;;;;10.06;57.73;101401.25;4900593;29;45342;-62
2022/11/05 02:25:03;;;;;;;;;19.50;17.00;;;;;10.02;57.82;101399.47;4930201;28;45453;-62
2022/11/05 02:27:57;;;;;;;;;13.25;12.50;;;;;9.99;57.87;101402.13;4944129;28;45227;-62
2022/11/05 02:30:50;;;;;;;;;16.25;12.50;;;;;9.97;58.08;101400.38;4944053;28;45184;-62
2022/11/05 02:34:00;;;;;;;;;16.25;15.00;;;;;9.93;57.86;101410.00;4943697;28;47334;-62
2022/11/05 02:36:37;;;;;;;;;16.25;14.50;;;;;9.90;58.00;101416.13;4924411;28;45328;-62
2022/11/05 02:39:37;;;;;;;;;15.00;12.00;;;;;9.88;58.10;101411.75;4944089;28;45310;-62
2022/11/05 02:42:20;;;;;;;;;14.75;14.50;;;;;9.84;57.97;101410.03;4932240;28;45502;-62
2022/11/05 02:45:03;;;;;;;;;12.75;12.25;;;;;9.85;57.79;101415.28;4943934;28;46270;-62
2022/11/05 02:47:39;;;;;;;;;17.25;15.00;;;;;9.83;57.92;101418.78;4943456;28;45337;-62
2022/11/05 02:50:08;;;;;;;;;16.50;14.00;;;;;9.81;58.04;101424.03;4943694;28;45292;-63
2022/11/05 02:52:40;;;;;;;;;15.50;14.25;;;;;9.79;58.20;101417.03;4942562;28;45315;-62
2022/11/05 02:55:33;;;;;;;;;17.75;16.75;;;;;9.74;58.03;101410.00;4943444;28;46684;-62
2022/11/05 02:58:02;;;;;;;;;15.00;13.00;;;;;9.68;58.08;101410.00;4943785;28;45378;-62
2022/11/05 03:00:47;;;;;;;;;15.50;13.50;;;;;9.68;58.00;101415.25;4943629;28;45375;-62
2022/11/05 03:03:17;;;;;;;;;14.00;12.50;;;;;9.65;58.12;101415.28;4943355;28;45273;-62
2022/11/05 03:06:24;;;;;;;;;18.50;17.25;;;;;9.63;58.13;101419.63;4943634;28;45485;-62
2022/11/05 03:09:01;;;;;;;;;19.00;18.75;;;;;9.61;58.17;101418.78;4943611;28;45338;-62
2022/11/05 03:11:29;;;;;;;;;16.50;15.25;;;;;9.59;58.05;101418.75;4943482;28;45151;-62
2022/11/05 03:14:25;;;;;;;;;12.67;12.33;;;;;9.58;58.05;101427.53;4943304;28;45381;-62
2022/11/05 03:17:12;;;;;;;;;14.00;12.50;;;;;9.55;58.19;101410.91;4942983;28;45341;-62
2022/11/05 03:19:47;;;;;;;;;16.25;13.25;;;;;9.54;58.30;101411.75;4943199;28;45396;-62
2022/11/05 03:22:19;;;;;;;;;16.50;14.25;;;;;9.52;58.22;101403.00;4943508;28;45274;-62
2022/11/05 03:24:54;;;;;;;;;15.50;15.50;;;;;9.51;58.23;101401.25;4943229;28;45553;-61
2022/11/05 03:27:25;;;;;;;;;16.75;14.75;;;;;9.50;57.96;101405.63;4943032;28;45453;-61
2022/11/05 03:29:56;;;;;;;;;16.25;12.00;;;;;9.47;58.19;101402.13;4943300;28;45302;-62
2022/11/05 03:32:25;;;;;;;;;16.00;15.00;;;;;9.46;58.22;101405.63;4943070;28;45324;-62
2022/11/05 03:34:58;;;;;;;;;15.25;14.75;;;;;9.40;58.18;101402.13;4943156;28;45425;-62
2022/11/05 03:37:28;;;;;;;;;13.00;11.25;;;;;9.39;58.49;101410.84;4942550;28;46156;-62
2022/11/05 03:39:59;;;;;;;;;15.25;15.25;;;;;9.38;58.29;101400.38;4943180;28;45331;-62
2022/11/05 03:42:28;;;;;;;;;15.00;12.75;;;;;9.33;58.30;101392.47;4942995;28;45246;-62
2022/11/05 03:44:57;;;;;;;;;18.75;14.50;;;;;9.29;58.37;101395.13;4943140;28;45152;-62
2022/11/05 03:47:29;;;;;;;;;15.00;14.00;;;;;9.30;58.50;101396.88;4942423;28;46323;-62
2022/11/05 03:50:04;;;;;;;;;17.75;13.75;;;;;9.29;58.58;101400.38;4942950;28;45269;-62
2022/11/05 03:52:38;;;;;;;;;14.75;14.50;;;;;9.26;58.69;101391.59;4942966;28;45282;-62
2022/11/05 03:55:04;;;;;;;;;12.50;11.00;;;;;9.24;58.76;101398.63;4942787;28;45195;-62
2022/11/05 03:57:35;;;;;;;;;14.00;13.25;;;;;9.24;58.57;101392.47;4942591;28;45414;-62
2022/11/05 04:00:01;;;;;;;;;15.50;13.75;;;;;9.24;58.54;101382.00;4942744;28;45183;-61
2022/11/05 04:02:26;;;;;;;;;12.00;10.25;;;;;9.20;58.47;101382.88;4942659;28;45183;-61
2022/11/05 04:04:52;;;;;;;;;14.25;13.75;;;;;9.21;58.53;101403.84;4942722;28;45171;-62
2022/11/05 04:17:04;;;;;;;;;14.75;14.25;;;;;9.18;58.70;101400.34;4942372;28;45262;-62
2022/11/05 04:18:15;;;;;;;;;14.50;13.50;;;;;9.16;58.78;101395.09;4942063;28;45275;-62
2022/11/05 04:26:08;;;;;;;;;15.75;12.75;;;;;9.13;58.75;101402.06;4942311;28;45267;-62
2022/11/05 04:31:35;;;;;;;;;16.00;13.25;;;;;9.15;58.95;101418.69;4940284;28;45585;-62
2022/11/05 04:34:00;;;;;;;;;16.00;13.50;;;;;9.13;58.85;101420.44;4936407;28;45544;-62
2022/11/05 04:36:26;;;;;;;;;20.75;17.25;;;;;9.13;58.59;101423.06;4942305;28;45467;-62
2022/11/05 04:38:51;;;;;;;;;19.25;14.50;;;;;9.10;58.91;101422.16;4942103;28;46107;-62
2022/11/05 04:41:17;;;;;;;;;14.25;14.25;;;;;9.15;58.98;101426.56;4942257;28;45300;-62
2022/11/05 04:43:43;;;;;;;;;21.75;15.25;;;;;9.14;58.89;101428.28;4942243;28;45326;-62
2022/11/05 04:46:08;;;;;;;;;15.50;15.50;;;;;9.15;58.79;101437.06;4942321;28;45310;-62
2022/11/05 04:48:34;;;;;;;;;17.25;16.00;;;;;9.13;59.07;101431.78;4940326;28;45319;-62
2022/11/05 04:50:59;;;;;;;;;13.00;13.00;;;;;9.13;58.71;101430.91;4942279;28;45305;-62
2022/11/05 04:53:25;;;;;;;;;19.75;15.75;;;;;9.11;58.72;101423.91;4942144;28;45172;-61
2022/11/05 04:55:50;;;;;;;;;22.25;17.50;;;;;9.09;59.09;101430.91;4941967;28;45382;-62
2022/11/05 04:58:15;;;;;;;;;19.75;17.25;;;;;9.10;59.00;101429.16;4941697;28;45469;-62
2022/11/05 05:00:41;;;;;;;;;22.25;16.50;;;;;9.07;58.90;101432.66;4942073;28;45199;-62
2022/11/05 05:03:07;;;;;;;;;17.25;15.25;;;;;9.05;59.10;101428.28;4941776;28;45163;-62
2022/11/05 05:05:32;;;;;;;;;17.50;12.75;;;;;9.04;59.10;101427.41;4942119;28;45276;-62
2022/11/05 05:08:04;;;;;;;;;19.50;17.00;;;;;8.97;59.35;101425.63;4941649;28;46273;-62
2022/11/05 05:10:30;;;;;;;;;20.75;15.75;;;;;9.01;59.24;101427.38;4941772;28;45508;-62
2022/11/05 05:12:56;;;;;;;;;16.25;12.25;;;;;9.01;58.96;101432.63;4941797;28;45282;-62
2022/11/05 05:15:21;;;;;;;;;17.25;13.75;;;;;9.02;59.12;101434.38;4941520;28;45449;-62
2022/11/05 05:17:51;;;;;;;;;16.50;14.00;;;;;9.01;59.11;101435.25;4941393;28;46245;-62
2022/11/05 05:23:02;;;;;;;;;14.00;12.75;;;;;9.01;58.98;101456.22;4941702;28;45325;-62
2022/11/05 05:25:27;;;;;;;;;11.75;11.25;;;;;8.99;59.15;101454.47;4941409;28;45407;-62
2022/11/05 05:27:56;;;;;;;;;14.25;13.50;;;;;8.94;59.21;101443.97;4941345;28;46191;-62
2022/11/05 05:30:21;;;;;;;;;15.00;12.00;;;;;8.98;59.40;101458.84;4941739;28;45288;-62
2022/11/05 05:32:47;;;;;;;;;11.75;11.75;;;;;8.96;59.35;101444.84;4941343;28;45155;-61
2022/11/05 05:35:12;;;;;;;;;13.50;12.25;;;;;8.94;59.23;101459.69;4941521;28;45223;-62
2022/11/05 05:37:38;;;;;;;;;20.25;15.75;;;;;8.90;59.34;101450.06;4941306;28;45167;-61
2022/11/05 05:40:03;;;;;;;;;14.50;12.00;;;;;8.89;59.38;101456.16;4940387;28;45278;-61
2022/11/05 05:42:29;;;;;;;;;13.25;12.25;;;;;8.87;59.36;101460.56;4941391;28;45309;-61
2022/11/05 05:44:54;;;;;;;;;12.25;11.00;;;;;8.88;59.44;101454.41;4941444;28;45528;-61
2022/11/05 05:47:19;;;;;;;;;13.00;11.00;;;;;8.85;59.54;101446.56;4940945;28;45244;-61
2022/11/05 05:49:45;;;;;;;;;15.00;13.25;;;;;8.86;59.41;101450.94;4923905;28;45452;-61
2022/11/05 05:52:10;;;;;;;;;12.75;11.00;;;;;8.83;59.62;101443.03;4941149;28;45239;-61
2022/11/05 05:54:35;;;;;;;;;13.25;10.75;;;;;8.86;59.66;101458.78;4941412;28;45293;-61
2022/11/05 05:57:02;;;;;;;;;12.25;12.25;;;;;8.85;59.55;101457.03;4940778;28;51487;-61
2022/11/05 05:59:27;;;;;;;;;14.00;10.75;;;;;8.83;59.44;101450.91;4942987;28;45317;-61
2022/11/05 06:01:52;;;;;;;;;10.00;10.00;;;;;8.84;59.64;101450.94;4944309;28;45310;-61
2022/11/05 06:04:18;;;;;;;;;12.75;11.50;;;;;8.85;59.67;101441.31;4944638;28;45267;-61
2022/11/05 06:06:45;;;;;;;;;14.50;12.50;;;;;8.85;59.42;101446.56;4944235;28;45371;-61
2022/11/05 06:09:11;;;;;;;;;11.75;10.75;;;;;8.85;59.75;101449.19;4945050;28;45298;-61
2022/11/05 06:11:36;;;;;;;;;11.25;10.75;;;;;8.87;59.55;101460.56;4944371;28;45235;-61
2022/11/05 06:14:01;;;;;;;;;11.75;11.25;;;;;8.86;59.77;101458.78;4944457;28;45485;-61
2022/11/05 06:16:27;;;;;;;;;10.75;10.00;;;;;8.87;59.35;101460.56;4944139;28;45999;-61
2022/11/05 06:18:52;;;;;;;;;14.25;11.50;;;;;8.85;59.87;101457.03;4944075;28;45282;-61
2022/11/05 06:21:18;;;;;;;;;12.00;12.00;;;;;8.85;59.86;101457.03;4944318;28;45250;-61
2022/11/05 06:23:44;;;;;;;;;11.50;10.50;;;;;8.88;59.69;101459.66;4944489;28;45240;-61
2022/11/05 06:26:15;;;;;;;;;12.50;10.25;;;;;8.88;59.80;101467.53;4944178;28;47126;-61
2022/11/05 06:28:41;;;;;;;;;13.25;13.00;;;;;8.89;59.72;101467.56;4944006;28;45256;-61
2022/11/05 06:31:08;;;;;;;;;11.50;10.00;;;;;8.87;59.67;101474.53;4944244;28;45349;-61
2022/11/05 06:33:34;;;;;;;;;12.25;11.50;;;;;8.87;59.65;101471.03;4943969;28;45415;-61
2022/11/05 06:36:01;;;;;;;;;13.00;10.25;;;;;8.85;59.53;101473.63;4943735;28;46732;-62
2022/11/05 06:38:28;;;;;;;;;13.00;11.25;;;;;8.86;59.97;101475.38;4944160;28;45404;-62
2022/11/05 06:40:53;;;;;;;;;12.50;11.25;;;;;8.85;59.71;101483.25;4943819;28;45322;-62
2022/11/05 06:43:19;;;;;;;;;10.00;9.75;;;;;8.84;59.60;101474.53;4942624;28;45975;-62
2022/11/05 06:45:44;;;;;;;;;15.50;11.25;;;;;8.82;59.72;101473.63;4943365;28;52855;-62
2022/11/05 06:48:09;;;;;;;;;13.00;12.00;;;;;8.85;59.83;101472.75;4943752;28;45318;-62
2022/11/05 06:50:35;;;;;;;;;12.50;10.50;;;;;8.84;59.70;101477.16;4943733;28;45238;-62
2022/11/05 06:53:02;;;;;;;;;24.75;18.75;;;;;8.86;59.42;101490.25;4944070;28;45406;-62
2022/11/05 06:55:29;;;;;;;;;23.00;20.75;;;;;8.86;59.66;101479.75;4943450;28;46331;-63
2022/11/05 06:57:55;;;;;;;;;41.25;31.25;;;;;8.86;59.51;101485.00;4942385;28;45298;-62
2022/11/05 07:00:21;;;;;;;;;20.00;17.00;;;;;8.85;59.70;101493.72;4943665;28;45377;-62
2022/11/05 07:02:47;;;;;;;;;17.00;16.25;;;;;8.82;59.67;101483.22;4943465;28;45450;-62
2022/11/05 07:05:13;;;;;;;;;18.50;13.25;;;;;8.86;59.78;101495.50;4943480;28;46160;-62
2022/11/05 07:07:43;;;;;;;;;15.50;15.00;;;;;8.85;59.70;101486.72;4943669;28;45329;-62
2022/11/05 07:10:19;;;;;;;;;17.00;15.50;;;;;8.88;59.87;101491.13;4942842;28;45290;-62
2022/11/05 07:12:44;;;;;;;;;15.25;12.75;;;;;8.88;59.74;101498.97;4943481;28;45423;-62
2022/11/05 07:15:11;;;;;;;;;20.00;18.25;;;;;8.90;59.83;101507.72;4943270;28;46008;-62
2022/11/05 07:17:36;;;;;;;;;21.50;20.50;;;;;8.92;59.87;101508.63;4943136;28;45382;-62
2022/11/05 07:20:04;;;;;;;;;18.75;15.50;;;;;8.92;59.70;101516.50;4943382;28;45261;-62
2022/11/05 07:22:30;;;;;;;;;19.75;18.50;;;;;8.93;59.77;101518.22;4943392;28;45516;-62
2022/11/05 07:24:55;;;;;;;;;21.25;16.25;;;;;8.90;59.94;101512.97;4943361;28;46230;-62
2022/11/05 07:27:20;;;;;;;;;18.25;14.50;;;;;8.92;60.22;101511.25;4943205;28;45235;-62
2022/11/05 07:29:46;;;;;;;;;13.50;12.75;;;;;8.92;59.99;101519.13;4943678;28;45299;-62
2022/11/05 07:32:11;;;;;;;;;14.00;14.00;;;;;8.93;59.74;101523.47;4943208;28;45406;-62
2022/11/05 07:34:36;;;;;;;;;16.00;14.00;;;;;8.92;60.29;101511.25;4943161;28;45829;-62
2022/11/05 07:37:02;;;;;;;;;18.50;12.75;;;;;8.90;60.14;101510.34;4942953;28;52343;-62
2022/11/05 07:39:27;;;;;;;;;21.75;17.50;;;;;8.93;60.15;101513.88;4943303;28;45557;-62
2022/11/05 07:41:53;;;;;;;;;18.50;15.25;;;;;8.93;60.08;101508.63;4943060;28;45212;-62
2022/11/05 07:44:19;;;;;;;;;14.00;13.25;;;;;8.94;60.31;101519.97;4943026;28;47164;-62
2022/11/05 07:46:44;;;;;;;;;13.50;12.25;;;;;8.95;60.18;101519.13;4942849;28;45316;-62
2022/11/05 07:49:10;;;;;;;;;13.25;11.50;;;;;8.97;60.07;101521.75;4943060;28;45400;-62
2022/11/05 07:51:35;;;;;;;;;17.75;14.00;;;;;9.01;60.38;101526.16;4943040;28;45279;-62
2022/11/05 07:54:00;;;;;;;;;14.25;12.00;;;;;8.97;60.28;101520.00;4942921;28;45314;-62
2022/11/05 07:56:26;;;;;;;;;12.25;10.25;;;;;8.97;60.32;101525.25;4942553;28;49634;-62
2022/11/05 07:58:51;;;;;;;;;13.50;12.50;;;;;9.02;60.35;101530.50;4942954;28;45490;-62
2022/11/05 08:01:16;;;;;;;;;14.75;14.00;;;;;9.03;60.28;101527.91;4942913;28;45397;-62
2022/11/05 08:03:42;;;;;;;;;14.50;12.75;;;;;9.05;60.26;101528.78;4942471;28;45484;-62
2022/11/05 08:06:07;;;;;;;;;12.50;11.00;;;;;9.09;60.02;101530.56;4942870;28;45397;-62
2022/11/05 08:08:33;;;;;;;;;20.50;15.75;;;;;9.11;60.07;101525.31;4942740;28;45407;-62
2022/11/05 08:11:03;;;;;;;;;14.00;13.00;;;;;9.13;60.41;101520.94;4942670;28;45446;-61
2022/11/05 08:13:28;;;;;;;;;14.25;12.50;;;;;9.16;60.49;101520.09;4942603;28;46180;-61
2022/11/05 08:15:55;;;;;;;;;15.25;15.00;;;;;9.16;60.39;101531.47;4941938;28;45398;-61
2022/11/05 08:18:20;;;;;;;;;16.00;15.00;;;;;9.20;60.29;101527.97;4942522;28;45275;-61
2022/11/05 08:20:46;;;;;;;;;12.50;12.25;;;;;9.22;60.32;101531.47;4942357;28;45535;-61
2022/11/05 08:23:12;;;;;;;;;15.00;13.75;;;;;9.24;60.34;101521.88;4942436;28;45410;-61
2022/11/05 08:25:38;;;;;;;;;13.25;12.25;;;;;9.32;60.25;101528.88;4942249;28;45337;-62
2022/11/05 08:28:10;;;;;;;;;14.75;14.25;;;;;9.35;60.21;101528.91;4942459;28;45399;-61
2022/11/05 08:30:35;;;;;;;;;19.50;17.50;;;;;9.40;60.48;101535.91;4942397;28;45401;-61
2022/11/05 08:33:06;;;;;;;;;15.00;13.25;;;;;9.43;60.60;101535.94;4941997;28;47072;-61
2022/11/05 08:35:33;;;;;;;;;16.00;13.25;;;;;9.42;60.74;101521.06;4942151;28;45265;-61
2022/11/05 08:38:01;;;;;;;;;19.75;17.50;;;;;9.49;60.62;101528.97;4942312;28;45231;-61
2022/11/05 08:40:29;;;;;;;;;13.50;13.50;;;;;9.53;60.62;101528.09;4941925;28;45428;-62
2022/11/05 08:42:59;;;;;;;;;16.50;13.50;;;;;9.56;60.39;101530.72;4942189;28;46166;-64
2022/11/05 08:45:25;;;;;;;;;12.00;12.00;;;;;9.59;60.38;101534.22;4942029;28;45290;-65
2022/11/05 08:48:00;;;;;;;;;17.00;15.25;;;;;9.63;60.55;101537.72;4942050;28;45454;-62
2022/11/05 08:50:26;;;;;;;;;18.00;15.00;;;;;9.67;60.20;101536.88;4941830;28;45394;-62
2022/11/05 08:52:51;;;;;;;;;14.00;13.75;;;;;9.70;60.59;101544.75;4941997;28;46137;-62
2022/11/05 08:55:17;;;;;;;;;14.00;13.00;;;;;9.75;60.48;101550.00;4941814;28;45311;-62
2022/11/05 08:57:45;;;;;;;;;15.25;14.25;;;;;9.75;60.40;101548.25;4941787;28;45350;-61
2022/11/05 09:00:11;;;;;;;;;22.50;16.25;;;;;9.83;60.38;101560.53;4941635;28;45437;-61
2022/11/05 09:02:36;;;;;;;;;15.25;13.50;;;;;9.86;60.40;101553.53;4941663;28;46220;-61
2022/11/05 09:05:02;;;;;;;;;25.50;23.00;;;;;9.91;60.30;101556.16;4941650;28;47463;-62
2022/11/05 09:07:27;;;;;;;;;29.75;26.75;;;;;10.02;60.38;101562.28;4942025;28;45500;-61
2022/11/05 09:09:52;;;;;;;;;17.50;15.50;;;;;10.11;60.33;101565.81;4941826;28;45553;-61
2022/11/05 09:12:18;;;;;;;;;18.50;15.75;;;;;10.16;60.48;101554.47;4941731;28;46153;-62
2022/11/05 09:14:43;;;;;;;;;17.25;16.00;;;;;10.22;60.33;101550.94;4941598;28;45226;-62
2022/11/05 09:17:16;;;;;;;;;16.25;16.00;;;;;10.31;60.56;101553.56;4941633;28;45353;-62
2022/11/05 09:19:42;;;;;;;;;14.75;14.75;;;;;10.32;60.48;101542.16;4941557;28;45283;-61
2022/11/05 09:22:07;;;;;;;;;18.50;16.75;;;;;10.44;60.49;101533.47;4941582;28;45250;-61
2022/11/05 09:24:32;;;;;;;;;15.25;11.75;;;;;10.54;60.33;101539.56;4941794;28;45272;-61
2022/11/05 09:26:58;;;;;;;;;15.00;14.50;;;;;10.59;60.47;101529.94;4941677;28;45168;-61
2022/11/05 09:29:23;;;;;;;;;17.75;16.00;;;;;10.63;60.40;101530.78;4941447;28;45528;-61
2022/11/05 09:31:49;;;;;;;;;18.75;15.75;;;;;10.68;60.33;101532.53;4941429;28;45243;-62
2022/11/05 09:34:14;;;;;;;;;16.75;16.00;;;;;10.78;60.33;101537.75;4944836;28;45227;-62
2022/11/05 09:36:39;;;;;;;;;16.00;15.25;;;;;10.83;60.45;101536.88;4948188;28;45335;-61
2022/11/05 09:39:05;;;;;;;;;18.00;15.25;;;;;10.89;60.37;101538.63;4947924;28;45777;-62
2022/11/05 09:41:38;;;;;;;;;19.25;19.25;;;;;10.95;60.49;101533.34;4947803;28;45918;-61
2022/11/05 09:44:17;;;;;;;;;17.25;15.00;;;;;11.00;60.25;101533.34;4947835;28;45230;-62
2022/11/05 09:46:48;;;;;;;;;17.00;15.00;;;;;11.01;60.43;101533.31;4947692;28;45357;-62
2022/11/05 09:49:26;;;;;;;;;13.50;10.25;;;;;11.10;60.37;101534.19;4946258;28;45448;-61
2022/11/05 09:51:54;;;;;;;;;13.25;12.50;;;;;11.17;60.28;101533.25;4947631;28;45556;-61
2022/11/05 09:54:24;;;;;;;;;16.00;14.25;;;;;11.25;60.13;101536.75;4947708;28;45246;-61
2022/11/05 09:56:51;;;;;;;;;17.75;15.75;;;;;11.26;60.41;101535.88;4947431;28;45178;-61
2022/11/05 09:59:25;;;;;;;;;22.75;19.25;;;;;11.36;60.25;101537.56;4947644;28;45472;-61
2022/11/05 10:02:08;;;;;;;;;18.25;14.50;;;;;11.44;60.27;101541.94;4947174;28;46411;-62
2022/11/05 10:04:34;;;;;;;;;15.25;13.50;;;;;11.51;60.27;101535.75;4947559;28;45176;-62
2022/11/05 10:07:04;;;;;;;;;13.00;12.25;;;;;11.56;60.23;101533.97;4947592;28;45347;-61
2022/11/05 10:09:44;;;;;;;;;14.75;14.00;;;;;11.62;60.32;101539.19;4947549;28;45305;-61
2022/11/05 10:12:38;;;;;;;;;18.75;14.75;;;;;11.69;60.16;101540.88;4947156;28;46127;-63
2022/11/05 10:15:04;;;;;;;;;20.25;14.75;;;;;11.76;60.65;101536.47;4947364;28;45368;-60
2022/11/05 10:17:31;;;;;;;;;19.25;16.00;;;;;11.80;60.05;101545.25;4947295;28;45235;-61
2022/11/05 10:20:41;;;;;;;;;22.75;21.75;;;;;11.88;59.97;101535.50;4946182;28;45445;-61
2022/11/05 10:23:17;;;;;;;;;15.50;15.00;;;;;11.96;60.09;101531.09;4945967;28;46294;-62
2022/11/05 10:25:46;;;;;;;;;23.75;19.00;;;;;11.99;60.22;101528.44;4947114;28;45263;-61
2022/11/05 10:28:23;;;;;;;;;23.25;22.75;;;;;12.09;60.09;101534.53;4947425;28;45565;-62
2022/11/05 10:30:55;;;;;;;;;25.00;20.75;;;;;12.09;60.07;101528.34;4947115;28;45457;-62
2022/11/05 10:33:42;;;;;;;;;18.75;15.25;;;;;12.17;59.98;101531.81;4947018;28;45465;-62
2022/11/05 10:36:22;;;;;;;;;15.50;14.25;;;;;12.25;59.83;101537.03;4947278;28;45318;-62
2022/11/05 10:38:48;;;;;;;;;13.00;13.00;;;;;12.30;59.97;101537.84;4947083;28;45413;-62
2022/11/05 10:41:17;;;;;;;;;15.75;13.50;;;;;12.33;60.00;101546.59;4947145;28;45247;-62
2022/11/05 10:43:50;;;;;;;;;16.75;15.50;;;;;12.37;59.98;101536.06;4946911;28;46400;-62
2022/11/05 10:46:43;;;;;;;;;18.75;15.50;;;;;12.44;59.69;101543.00;4943363;28;45473;-62
2022/11/05 10:49:17;;;;;;;;;17.75;15.50;;;;;12.49;59.96;101541.19;4943699;28;45414;-62
2022/11/05 10:51:44;;;;;;;;;18.00;16.00;;;;;12.50;59.54;101535.94;4943614;28;45597;-62
2022/11/05 10:54:15;;;;;;;;;13.75;13.75;;;;;12.50;59.89;101541.19;4942317;28;46160;-62
2022/11/05 10:56:41;;;;;;;;;13.25;11.50;;;;;12.50;59.95;101548.22;4943343;28;45252;-62
2022/11/05 10:59:24;;;;;;;;;13.25;12.75;;;;;12.49;59.62;101539.44;4943979;28;45247;-62
2022/11/05 11:02:02;;;;;;;;;10.00;9.75;;;;;12.55;59.69;101540.28;4943310;28;45328;-62
2022/11/05 11:04:29;;;;;;;;;12.75;12.00;;;;;12.53;60.18;101540.28;4943508;28;45362;-62
2022/11/05 11:06:57;;;;;;;;;10.75;8.25;;;;;12.56;59.83;101544.66;4942096;28;45280;-62
2022/11/05 11:09:27;;;;;;;;;10.75;10.75;;;;;12.57;59.38;101543.78;4943697;28;45306;-62
2022/11/05 11:12:14;;;;;;;;;11.00;10.00;;;;;12.60;59.68;101535.81;4943276;28;45348;-62
2022/11/05 11:14:39;;;;;;;;;11.25;8.75;;;;;12.63;59.60;101528.75;4943204;28;46491;-62
2022/11/05 11:17:23;;;;;;;;;10.25;10.00;;;;;12.67;59.53;101527.84;4943061;28;45248;-62
2022/11/05 11:19:48;;;;;;;;;12.00;11.75;;;;;12.68;59.36;101529.59;4943391;28;45249;-62
2022/11/05 11:22:18;;;;;;;;;13.25;11.75;;;;;12.68;59.43;101516.41;4943267;28;50054;-62
2022/11/05 11:24:49;;;;;;;;;13.25;10.50;;;;;12.77;59.55;101527.75;4943193;28;46250;-63
2022/11/05 11:27:23;;;;;;;;;14.00;13.00;;;;;12.78;59.51;101521.56;4943054;28;45450;-62
2022/11/05 11:29:55;;;;;;;;;15.00;11.75;;;;;12.81;59.56;101518.91;4931233;28;45394;-63
2022/11/05 11:32:20;;;;;;;;;13.00;11.00;;;;;12.81;59.40;101516.28;4942871;28;45365;-62
2022/11/05 11:34:51;;;;;;;;;10.50;10.50;;;;;12.83;59.63;101517.13;4941911;28;46040;-62
2022/11/05 11:37:40;;;;;;;;;11.00;11.00;;;;;12.91;59.45;101514.41;4943050;28;45484;-61
2022/11/05 11:40:19;;;;;;;;;8.00;6.00;;;;;12.91;59.57;101510.00;4943227;28;45300;-62
2022/11/05 11:42:48;;;;;;;;;14.75;12.75;;;;;12.96;59.46;101515.22;4943051;28;45675;-62
2022/11/05 11:45:18;;;;;;;;;11.00;9.75;;;;;12.98;59.54;101516.94;4943009;28;45304;-62
2022/11/05 11:47:46;;;;;;;;;11.50;10.50;;;;;13.04;59.60;101512.50;4942706;28;45192;-62
2022/11/05 11:50:33;;;;;;;;;14.75;12.75;;;;;13.03;59.42;101516.91;4942964;28;45397;-62
2022/11/05 11:53:20;;;;;;;;;14.25;11.75;;;;;13.09;59.61;101508.88;4943129;28;45477;-62
2022/11/05 11:55:54;;;;;;;;;9.25;9.25;;;;;13.12;59.34;101494.81;4942660;28;45401;-62
2022/11/05 11:58:21;;;;;;;;;11.75;10.75;;;;;13.16;59.34;101499.16;4942099;28;45310;-63
2022/11/05 12:00:59;;;;;;;;;12.25;9.25;;;;;13.23;59.66;101506.09;4943004;28;45203;-63
2022/11/05 12:03:42;;;;;;;;;10.75;9.25;;;;;13.28;59.65;101491.06;4942552;28;45250;-62
2022/11/05 12:06:29;;;;;;;;;12.50;11.25;;;;;13.35;59.50;101498.91;4942691;28;45708;-63
2022/11/05 12:09:24;;;;;;;;;11.25;10.00;;;;;13.41;59.53;101501.47;4942782;28;45320;-62
2022/11/05 12:12:04;;;;;;;;;10.75;9.00;;;;;13.43;59.48;101503.22;4942650;28;45188;-62